sensor_id;sensor_type;location;lat;lon;timestamp;pressure;altitude;pressure_sealevel;temperature;humidity
74045;BME280;62389;51.412;5.436;2023-03-26T00:00:46;100643.28;;;7.61;89.71
74045;BME280;62389;51.412;5.436;2023-03-26T00:03:15;100639.94;;;7.57;89.41
74045;BME280;62389;51.412;5.436;2023-03-26T00:05:41;100638.34;;;7.53;88.85
74045;BME280;62389;51.412;5.436;2023-03-26T00:08:08;100641.00;;;7.51;89.30
74045;BME280;62389;51.412;5.436;2023-03-26T00:10:35;100645.34;;;7.51;89.30
74045;BME280;62389;51.412;5.436;2023-03-26T00:13:01;100636.63;;;7.52;90.02
74045;BME280;62389;51.412;5.436;2023-03-26T00:15:27;100635.84;;;7.50;90.11
74045;BME280;62389;51.412;5.436;2023-03-26T00:17:52;100641.16;;;7.47;90.02
74045;BME280;62389;51.412;5.436;2023-03-26T00:20:19;100634.41;;;7.41;89.84
74045;BME280;62389;51.412;5.436;2023-03-26T00:22:44;100632.78;;;7.37;90.04
74045;BME280;62389;51.412;5.436;2023-03-26T00:25:10;100621.69;;;7.32;90.05
74045;BME280;62389;51.412;5.436;2023-03-26T00:27:35;100629.56;;;7.31;89.79
74045;BME280;62389;51.412;5.436;2023-03-26T00:30:03;100635.75;;;7.26;90.31
74045;BME280;62389;51.412;5.436;2023-03-26T00:32:29;100624.63;;;7.23;90.18
74045;BME280;62389;51.412;5.436;2023-03-26T00:34:55;100633.38;;;7.20;90.26
74045;BME280;62389;51.412;5.436;2023-03-26T00:37:22;100627.38;;;7.18;89.98
74045;BME280;62389;51.412;5.436;2023-03-26T00:39:55;100626.53;;;7.18;90.53
74045;BME280;62389;51.412;5.436;2023-03-26T00:42:24;100612.72;;;7.16;90.23
74045;BME280;62389;51.412;5.436;2023-03-26T00:44:50;100613.69;;;7.13;90.64
74045;BME280;62389;51.412;5.436;2023-03-26T00:47:25;100612.84;;;7.11;90.67
74045;BME280;62389;51.412;5.436;2023-03-26T00:49:50;100612.78;;;7.13;90.52
74045;BME280;62389;51.412;5.436;2023-03-26T00:52:16;100610.25;;;7.11;91.25
74045;BME280;62389;51.412;5.436;2023-03-26T00:54:50;100599.84;;;7.11;90.81
74045;BME280;62389;51.412;5.436;2023-03-26T00:57:16;100601.59;;;7.11;90.42
74045;BME280;62389;51.412;5.436;2023-03-26T00:59:42;100598.25;;;7.07;90.59
74045;BME280;62389;51.412;5.436;2023-03-26T01:02:11;100600.06;;;7.05;90.94
74045;BME280;62389;51.412;5.436;2023-03-26T01:04:37;100598.38;;;7.04;91.09
74045;BME280;62389;51.412;5.436;2023-03-26T01:07:10;100581.94;;;7.02;90.84
74045;BME280;62389;51.412;5.436;2023-03-26T01:09:43;100582.75;;;7.04;90.69
74045;BME280;62389;51.412;5.436;2023-03-26T01:12:13;100575.75;;;7.06;90.79
74045;BME280;62389;51.412;5.436;2023-03-26T01:14:43;100567.09;;;7.06;90.78
74045;BME280;62389;51.412;5.436;2023-03-26T01:17:09;100561.13;;;7.04;90.79
74045;BME280;62389;51.412;5.436;2023-03-26T01:22:23;100552.63;;;6.98;90.87
74045;BME280;62389;51.412;5.436;2023-03-26T01:24:49;100545.81;;;6.94;91.58
74045;BME280;62389;51.412;5.436;2023-03-26T01:27:27;100540.75;;;6.90;91.43
74045;BME280;62389;51.412;5.436;2023-03-26T01:35:53;100536.84;;;6.77;91.68
74045;BME280;62389;51.412;5.436;2023-03-26T01:38:40;100542.06;;;6.77;91.42
74045;BME280;62389;51.412;5.436;2023-03-26T01:41:19;100542.06;;;6.77;91.58
74045;BME280;62389;51.412;5.436;2023-03-26T01:44:09;100537.69;;;6.77;91.64
74045;BME280;62389;51.412;5.436;2023-03-26T01:46:33;100529.13;;;6.75;92.45
74045;BME280;62389;51.412;5.436;2023-03-26T01:49:02;100533.56;;;6.71;92.01
74045;BME280;62389;51.412;5.436;2023-03-26T01:51:30;100529.28;;;6.70;92.28
74045;BME280;62389;51.412;5.436;2023-03-26T01:53:56;100526.66;;;6.70;92.19
74045;BME280;62389;51.412;5.436;2023-03-26T01:56:33;100517.94;;;6.73;91.94
74045;BME280;62389;51.412;5.436;2023-03-26T01:59:03;100516.19;;;6.73;92.00
74045;BME280;62389;51.412;5.436;2023-03-26T02:01:51;100505.72;;;6.75;91.93
74045;BME280;62389;51.412;5.436;2023-03-26T02:09:51;100493.63;;;6.74;92.43
74045;BME280;62389;51.412;5.436;2023-03-26T02:12:20;100490.97;;;6.75;92.34
74045;BME280;62389;51.412;5.436;2023-03-26T02:14:47;100488.31;;;6.77;91.99
74045;BME280;62389;51.412;5.436;2023-03-26T02:17:12;100479.72;;;6.75;92.22
74045;BME280;62389;51.412;5.436;2023-03-26T02:19:38;100472.84;;;6.74;92.13
74045;BME280;62389;51.412;5.436;2023-03-26T02:22:08;100472.78;;;6.75;91.92
74045;BME280;62389;51.412;5.436;2023-03-26T02:24:36;100472.78;;;6.75;92.27
74045;BME280;62389;51.412;5.436;2023-03-26T02:27:02;100470.97;;;6.78;92.68
74045;BME280;62389;51.412;5.436;2023-03-26T02:29:27;100477.91;;;6.77;92.35
74045;BME280;62389;51.412;5.436;2023-03-26T02:31:53;100473.63;;;6.76;92.69
74045;BME280;62389;51.412;5.436;2023-03-26T02:34:19;100468.50;;;6.74;91.88
74045;BME280;62389;51.412;5.436;2023-03-26T02:36:45;100460.69;;;6.74;91.49
74045;BME280;62389;51.412;5.436;2023-03-26T02:39:11;100462.47;;;6.72;91.90
74045;BME280;62389;51.412;5.436;2023-03-26T02:41:38;100453.81;;;6.73;91.75
74045;BME280;62389;51.412;5.436;2023-03-26T02:44:04;100445.19;;;6.71;91.77
74045;BME280;62389;51.412;5.436;2023-03-26T02:46:31;100446.88;;;6.72;91.70
74045;BME280;62389;51.412;5.436;2023-03-26T02:48:57;100438.25;;;6.72;91.83
74045;BME280;62389;51.412;5.436;2023-03-26T02:51:23;100435.59;;;6.73;91.88
74045;BME280;62389;51.412;5.436;2023-03-26T02:53:49;100430.34;;;6.75;91.71
74045;BME280;62389;51.412;5.436;2023-03-26T02:56:15;100432.03;;;6.76;91.65
74045;BME280;62389;51.412;5.436;2023-03-26T02:58:40;100426.84;;;6.76;91.44
74045;BME280;62389;51.412;5.436;2023-03-26T03:01:06;100425.09;;;6.77;90.72
74045;BME280;62389;51.412;5.436;2023-03-26T03:03:31;100417.34;;;6.75;91.25
74045;BME280;62389;51.412;5.436;2023-03-26T03:05:58;100410.50;;;6.72;91.29
74045;BME280;62389;51.412;5.436;2023-03-26T03:08:25;100410.41;;;6.75;91.47
74045;BME280;62389;51.412;5.436;2023-03-26T03:11:00;100405.09;;;6.79;91.74
74045;BME280;62389;51.412;5.436;2023-03-26T03:13:26;100401.47;;;6.83;91.70
74045;BME280;62389;51.412;5.436;2023-03-26T03:15:52;100404.03;;;6.84;91.58
74045;BME280;62389;51.412;5.436;2023-03-26T03:18:18;100382.28;;;6.87;91.33
74045;BME280;62389;51.412;5.436;2023-03-26T03:20:43;100394.41;;;6.88;91.85
74045;BME280;62389;51.412;5.436;2023-03-26T03:23:09;100387.47;;;6.87;91.90
74045;BME280;62389;51.412;5.436;2023-03-26T03:25:35;100384.84;;;6.88;91.85
74045;BME280;62389;51.412;5.436;2023-03-26T03:28:02;100375.38;;;6.86;91.99
74045;BME280;62389;51.412;5.436;2023-03-26T03:30:28;100371.88;;;6.87;93.07
74045;BME280;62389;51.412;5.436;2023-03-26T03:32:54;100369.25;;;6.88;92.41
74045;BME280;62389;51.412;5.436;2023-03-26T03:35:22;100371.72;;;6.91;93.13
74045;BME280;62389;51.412;5.436;2023-03-26T03:37:47;100368.16;;;6.94;92.61
74045;BME280;62389;51.412;5.436;2023-03-26T03:40:13;100362.06;;;6.95;92.56
74045;BME280;62389;51.412;5.436;2023-03-26T03:42:38;100368.88;;;6.97;93.17
74045;BME280;62389;51.412;5.436;2023-03-26T03:45:04;100364.50;;;6.99;92.65
74045;BME280;62389;51.412;5.436;2023-03-26T03:47:30;100354.94;;;7.00;93.50
74045;BME280;62389;51.412;5.436;2023-03-26T03:49:56;100357.53;;;7.00;93.19
74045;BME280;62389;51.412;5.436;2023-03-26T03:52:25;100351.66;;;6.95;94.20
74045;BME280;62389;51.412;5.436;2023-03-26T03:54:51;100344.09;;;6.89;94.47
74045;BME280;62389;51.412;5.436;2023-03-26T03:57:16;100339.00;;;6.86;94.33
74045;BME280;62389;51.412;5.436;2023-03-26T03:59:43;100333.03;;;6.82;94.84
74045;BME280;62389;51.412;5.436;2023-03-26T04:02:08;100332.31;;;6.79;95.37
74045;BME280;62389;51.412;5.436;2023-03-26T04:04:35;100325.41;;;6.78;95.78
74045;BME280;62389;51.412;5.436;2023-03-26T04:07:02;100321.94;;;6.79;95.87
74045;BME280;62389;51.412;5.436;2023-03-26T04:09:28;100322.78;;;6.79;95.67
74045;BME280;62389;51.412;5.436;2023-03-26T04:11:53;100319.19;;;6.82;96.25
74045;BME280;62389;51.412;5.436;2023-03-26T04:14:19;100314.75;;;6.85;96.33
74045;BME280;62389;51.412;5.436;2023-03-26T04:16:44;100306.84;;;6.88;96.31
74045;BME280;62389;51.412;5.436;2023-03-26T04:19:09;100302.34;;;6.92;95.79
74045;BME280;62389;51.412;5.436;2023-03-26T04:21:35;100301.41;;;6.94;96.30
74045;BME280;62389;51.412;5.436;2023-03-26T04:24:03;100288.34;;;6.96;95.75
74045;BME280;62389;51.412;5.436;2023-03-26T04:26:30;100289.16;;;6.98;95.96
74045;BME280;62389;51.412;5.436;2023-03-26T04:28:58;100288.25;;;6.99;95.68
74045;BME280;62389;51.412;5.436;2023-03-26T04:31:25;100276.09;;;6.99;95.46
74045;BME280;62389;51.412;5.436;2023-03-26T04:34:06;100270.81;;;7.01;95.81
74045;BME280;62389;51.412;5.436;2023-03-26T04:36:31;100259.56;;;7.00;95.58
74045;BME280;62389;51.412;5.436;2023-03-26T04:39:00;100257.88;;;6.99;95.62
74045;BME280;62389;51.412;5.436;2023-03-26T04:41:27;100255.34;;;6.98;95.71
74045;BME280;62389;51.412;5.436;2023-03-26T04:43:53;100248.44;;;6.97;95.92
74045;BME280;62389;51.412;5.436;2023-03-26T04:46:19;100248.56;;;6.94;95.59
74045;BME280;62389;51.412;5.436;2023-03-26T04:48:51;100239.13;;;6.91;95.83
74045;BME280;62389;51.412;5.436;2023-03-26T04:51:19;100238.28;;;6.91;95.38
74045;BME280;62389;51.412;5.436;2023-03-26T04:53:57;100227.09;;;6.89;95.22
74045;BME280;62389;51.412;5.436;2023-03-26T04:56:38;100230.66;;;6.86;95.47
74045;BME280;62389;51.412;5.436;2023-03-26T04:59:05;100218.63;;;6.84;95.82
74045;BME280;62389;51.412;5.436;2023-03-26T05:01:30;100217.81;;;6.82;95.99
74045;BME280;62389;51.412;5.436;2023-03-26T05:03:56;100220.56;;;6.79;95.94
74045;BME280;62389;51.412;5.436;2023-03-26T05:06:24;100211.94;;;6.77;96.34
74045;BME280;62389;51.412;5.436;2023-03-26T05:08:52;100211.91;;;6.78;96.50
74045;BME280;62389;51.412;5.436;2023-03-26T05:11:18;100209.34;;;6.77;96.34
74045;BME280;62389;51.412;5.436;2023-03-26T05:13:43;100205.91;;;6.76;96.49
74045;BME280;62389;51.412;5.436;2023-03-26T05:16:09;100210.34;;;6.74;96.73
74045;BME280;62389;51.412;5.436;2023-03-26T05:18:35;100207.66;;;6.75;96.80
74045;BME280;62389;51.412;5.436;2023-03-26T05:21:00;100204.97;;;6.79;97.02
74045;BME280;62389;51.412;5.436;2023-03-26T05:23:26;100202.22;;;6.82;97.12
74045;BME280;62389;51.412;5.436;2023-03-26T05:25:51;100197.00;;;6.83;97.03
74045;BME280;62389;51.412;5.436;2023-03-26T05:28:17;100191.72;;;6.85;96.45
74045;BME280;62389;51.412;5.436;2023-03-26T05:30:45;100182.16;;;6.85;96.48
74045;BME280;62389;51.412;5.436;2023-03-26T05:33:11;100176.97;;;6.85;96.45
74045;BME280;62389;51.412;5.436;2023-03-26T05:35:36;100176.91;;;6.87;96.85
74045;BME280;62389;51.412;5.436;2023-03-26T05:38:01;100170.00;;;6.86;96.76
74045;BME280;62389;51.412;5.436;2023-03-26T05:40:27;100168.41;;;6.83;96.29
74045;BME280;62389;51.412;5.436;2023-03-26T05:42:52;100163.19;;;6.83;96.81
74045;BME280;62389;51.412;5.436;2023-03-26T05:45:18;100161.44;;;6.84;96.57
74045;BME280;62389;51.412;5.436;2023-03-26T05:47:43;100155.34;;;6.85;96.50
74045;BME280;62389;51.412;5.436;2023-03-26T05:50:09;100150.97;;;6.85;96.92
74045;BME280;62389;51.412;5.436;2023-03-26T05:52:34;100147.47;;;6.86;97.10
74045;BME280;62389;51.412;5.436;2023-03-26T05:55:00;100137.88;;;6.88;96.52
74045;BME280;62389;51.412;5.436;2023-03-26T05:57:28;100137.03;;;6.88;97.14
74045;BME280;62389;51.412;5.436;2023-03-26T05:59:54;100134.44;;;6.88;97.34
74045;BME280;62389;51.412;5.436;2023-03-26T06:02:20;100133.50;;;6.89;97.25
74045;BME280;62389;51.412;5.436;2023-03-26T06:04:47;100131.75;;;6.89;96.93
74045;BME280;62389;51.412;5.436;2023-03-26T06:07:12;100123.88;;;6.91;96.93
74045;BME280;62389;51.412;5.436;2023-03-26T06:09:38;100122.97;;;6.92;96.44
74045;BME280;62389;51.412;5.436;2023-03-26T06:12:04;100120.38;;;6.92;96.56
74045;BME280;62389;51.412;5.436;2023-03-26T06:14:30;100122.09;;;6.93;96.92
74045;BME280;62389;51.412;5.436;2023-03-26T06:16:55;100120.34;;;6.93;97.00
74045;BME280;62389;51.412;5.436;2023-03-26T06:19:21;100118.56;;;6.94;96.83
74045;BME280;62389;51.412;5.436;2023-03-26T06:21:46;100118.50;;;6.95;96.51
74045;BME280;62389;51.412;5.436;2023-03-26T06:24:12;100117.59;;;6.96;96.55
74045;BME280;62389;51.412;5.436;2023-03-26T06:26:38;100125.47;;;6.95;97.14
74045;BME280;62389;51.412;5.436;2023-03-26T06:29:03;100123.88;;;6.91;96.93
74045;BME280;62389;51.412;5.436;2023-03-26T06:31:29;100120.50;;;6.89;97.23
74045;BME280;62389;51.412;5.436;2023-03-26T06:33:54;100118.09;;;6.84;97.14
74045;BME280;62389;51.412;5.436;2023-03-26T06:36:20;100113.16;;;6.78;97.23
74045;BME280;62389;51.412;5.436;2023-03-26T06:38:45;100120.22;;;6.74;97.53
74045;BME280;62389;51.412;5.436;2023-03-26T06:41:11;100124.75;;;6.69;98.08
74045;BME280;62389;51.412;5.436;2023-03-26T06:43:36;100118.03;;;6.64;98.66
74045;BME280;62389;51.412;5.436;2023-03-26T06:46:03;100119.78;;;6.63;98.80
74045;BME280;62389;51.412;5.436;2023-03-26T06:48:28;100119.78;;;6.63;98.88
74045;BME280;62389;51.412;5.436;2023-03-26T06:50:54;100115.44;;;6.64;99.05
74045;BME280;62389;51.412;5.436;2023-03-26T06:53:20;100115.28;;;6.67;99.38
74045;BME280;62389;51.412;5.436;2023-03-26T06:55:45;100113.44;;;6.70;99.79
74045;BME280;62389;51.412;5.436;2023-03-26T06:58:11;100113.44;;;6.70;99.54
74045;BME280;62389;51.412;5.436;2023-03-26T07:00:37;100108.25;;;6.70;99.57
74045;BME280;62389;51.412;5.436;2023-03-26T07:03:03;100113.31;;;6.73;99.92
74045;BME280;62389;51.412;5.436;2023-03-26T07:05:29;100107.22;;;6.74;100.00
74045;BME280;62389;51.412;5.436;2023-03-26T07:07:54;100101.09;;;6.75;100.00
74045;BME280;62389;51.412;5.436;2023-03-26T07:10:20;100101.88;;;6.78;100.00
74045;BME280;62389;51.412;5.436;2023-03-26T07:12:45;100098.41;;;6.79;100.00
74045;BME280;62389;51.412;5.436;2023-03-26T07:15:11;100100.16;;;6.78;100.00
74045;BME280;62389;51.412;5.436;2023-03-26T07:17:36;100096.56;;;6.81;100.00
74045;BME280;62389;51.412;5.436;2023-03-26T07:20:03;100094.81;;;6.81;100.00
74045;BME280;62389;51.412;5.436;2023-03-26T07:22:29;100091.25;;;6.84;100.00
74045;BME280;62389;51.412;5.436;2023-03-26T07:24:55;100091.25;;;6.84;100.00
74045;BME280;62389;51.412;5.436;2023-03-26T07:27:36;100088.59;;;6.85;100.00
74045;BME280;62389;51.412;5.436;2023-03-26T07:30:13;100083.31;;;6.87;100.00
74045;BME280;62389;51.412;5.436;2023-03-26T07:32:58;100086.75;;;6.87;100.00
74045;BME280;62389;51.412;5.436;2023-03-26T07:35:35;100084.13;;;6.89;100.00
74045;BME280;62389;51.412;5.436;2023-03-26T07:43:44;100079.25;;;7.01;100.00
74045;BME280;62389;51.412;5.436;2023-03-26T07:46:12;100078.22;;;7.06;100.00
74045;BME280;62389;51.412;5.436;2023-03-26T07:48:42;100068.56;;;7.09;99.85
74045;BME280;62389;51.412;5.436;2023-03-26T07:51:08;100070.16;;;7.12;100.00
74045;BME280;62389;51.412;5.436;2023-03-26T07:53:35;100063.16;;;7.14;100.00
74045;BME280;62389;51.412;5.436;2023-03-26T07:56:08;100067.44;;;7.15;100.00
74045;BME280;62389;51.412;5.436;2023-03-26T08:03:45;100061.25;;;7.17;100.00
74045;BME280;62389;51.412;5.436;2023-03-26T08:06:33;100056.94;;;7.18;100.00
74045;BME280;62389;51.412;5.436;2023-03-26T08:11:53;100052.50;;;7.20;100.00
74045;BME280;62389;51.412;5.436;2023-03-26T08:31:11;100039.03;;;7.31;100.00
74045;BME280;62389;51.412;5.436;2023-03-26T08:33:39;100045.00;;;7.33;100.00
74045;BME280;62389;51.412;5.436;2023-03-26T08:36:07;100038.91;;;7.34;100.00
74045;BME280;62389;51.412;5.436;2023-03-26T08:38:33;100040.72;;;7.32;100.00
74045;BME280;62389;51.412;5.436;2023-03-26T08:43:59;100045.16;;;7.30;100.00
74045;BME280;62389;51.412;5.436;2023-03-26T08:49:32;100037.47;;;7.26;100.00
74045;BME280;62389;51.412;5.436;2023-03-26T09:03:39;100036.50;;;7.29;100.00
74045;BME280;62389;51.412;5.436;2023-03-26T09:25:32;100033.28;;;7.22;100.00
74045;BME280;62389;51.412;5.436;2023-03-26T09:33:30;100042.34;;;7.14;100.00
74045;BME280;62389;51.412;5.436;2023-03-26T09:36:19;100038.25;;;7.08;100.00
74045;BME280;62389;51.412;5.436;2023-03-26T09:39:43;100036.63;;;7.06;100.00
74045;BME280;62389;51.412;5.436;2023-03-26T09:42:07;100035.84;;;7.04;100.00
74045;BME280;62389;51.412;5.436;2023-03-26T10:04:39;100049.41;;;6.90;100.00
74045;BME280;62389;51.412;5.436;2023-03-26T10:12:38;100049.16;;;6.96;100.00
74045;BME280;62389;51.412;5.436;2023-03-26T10:15:33;100044.78;;;6.96;100.00
74045;BME280;62389;51.412;5.436;2023-03-26T10:21:00;100050.19;;;7.12;100.00
74045;BME280;62389;51.412;5.436;2023-03-26T10:28:48;100050.34;;;7.30;100.00
74045;BME280;62389;51.412;5.436;2023-03-26T10:37:08;100047.22;;;7.42;100.00
74045;BME280;62389;51.412;5.436;2023-03-26T10:51:58;100060.03;;;7.46;100.00
74045;BME280;62389;51.412;5.436;2023-03-26T10:56:59;100056.47;;;7.49;100.00
74045;BME280;62389;51.412;5.436;2023-03-26T10:59:28;100058.22;;;7.48;100.00
74045;BME280;62389;51.412;5.436;2023-03-26T11:02:11;100058.97;;;7.50;100.00
74045;BME280;62389;51.412;5.436;2023-03-26T11:10:01;100063.59;;;7.64;100.00
74045;BME280;62389;51.412;5.436;2023-03-26T11:12:52;100067.13;;;7.63;99.68
74045;BME280;62389;51.412;5.436;2023-03-26T11:15:31;100065.28;;;7.65;99.70
74045;BME280;62389;51.412;5.436;2023-03-26T11:25:47;100060.59;;;7.73;100.00
74045;BME280;62389;51.412;5.436;2023-03-26T11:34:19;100070.31;;;7.89;99.64
74045;BME280;62389;51.412;5.436;2023-03-26T11:36:50;100078.25;;;7.86;98.84
74045;BME280;62389;51.412;5.436;2023-03-26T11:39:24;100084.38;;;7.85;99.19
74045;BME280;62389;51.412;5.436;2023-03-26T11:41:51;100072.00;;;7.90;98.74
74045;BME280;62389;51.412;5.436;2023-03-26T11:44:32;100077.97;;;7.92;99.53
74045;BME280;62389;51.412;5.436;2023-03-26T11:47:03;100080.56;;;7.92;99.18
74045;BME280;62389;51.412;5.436;2023-03-26T11:49:30;100086.72;;;7.91;99.19
74045;BME280;62389;51.412;5.436;2023-03-26T11:51:56;100080.72;;;7.89;98.84
74045;BME280;62389;51.412;5.436;2023-03-26T11:54:23;100086.72;;;7.91;99.87
74045;BME280;62389;51.412;5.436;2023-03-26T11:56:54;100081.28;;;7.95;99.54
74045;BME280;62389;51.412;5.436;2023-03-26T12:04:43;100089.75;;;8.19;100.00
74045;BME280;62389;51.412;5.436;2023-03-26T12:09:59;100086.75;;;8.28;100.00
74045;BME280;62389;51.412;5.436;2023-03-26T12:12:28;100095.31;;;8.30;100.00
74045;BME280;62389;51.412;5.436;2023-03-26T12:14:54;100086.66;;;8.30;99.05
74045;BME280;62389;51.412;5.436;2023-03-26T12:17:29;100081.78;;;8.22;97.62
74045;BME280;62389;51.412;5.436;2023-03-26T12:19:55;100086.66;;;8.11;98.04
74045;BME280;62389;51.412;5.436;2023-03-26T12:22:36;100096.31;;;8.09;98.80
74045;BME280;62389;51.412;5.436;2023-03-26T12:25:18;100094.59;;;8.08;98.45
74045;BME280;62389;51.412;5.436;2023-03-26T12:30:27;100099.41;;;8.17;98.75
74045;BME280;62389;51.412;5.436;2023-03-26T12:33:01;100098.34;;;8.21;99.59
74045;BME280;62389;51.412;5.436;2023-03-26T12:35:30;100096.28;;;8.28;100.00
74045;BME280;62389;51.412;5.436;2023-03-26T12:41:13;100107.50;;;8.30;99.06
74045;BME280;62389;51.412;5.436;2023-03-26T12:46:28;100105.44;;;8.18;98.22
74045;BME280;62389;51.412;5.436;2023-03-26T12:48:57;100104.88;;;8.11;97.97
74045;BME280;62389;51.412;5.436;2023-03-26T12:57:23;100113.69;;;8.09;99.84
74045;BME280;62389;51.412;5.436;2023-03-26T13:19:39;100135.06;;;7.96;99.94
74045;BME280;62389;51.412;5.436;2023-03-26T13:22:18;100128.72;;;8.02;99.21
74045;BME280;62389;51.412;5.436;2023-03-26T13:46:37;100140.53;;;8.29;97.63
74045;BME280;62389;51.412;5.436;2023-03-26T13:49:33;100143.78;;;8.35;98.79
74045;BME280;62389;51.412;5.436;2023-03-26T13:52:16;100151.34;;;8.41;98.31
74045;BME280;62389;51.412;5.436;2023-03-26T13:57:34;100160.44;;;8.51;97.71
74045;BME280;62389;51.412;5.436;2023-03-26T14:00:27;100160.97;;;8.57;97.96
74045;BME280;62389;51.412;5.436;2023-03-26T14:03:12;100160.84;;;8.61;97.94
74045;BME280;62389;51.412;5.436;2023-03-26T14:05:45;100159.94;;;8.62;98.76
74045;BME280;62389;51.412;5.436;2023-03-26T14:08:32;100166.28;;;8.56;98.51
74045;BME280;62389;51.412;5.436;2023-03-26T14:13:42;100170.25;;;8.25;97.93
74045;BME280;62389;51.412;5.436;2023-03-26T14:16:22;100178.59;;;8.13;97.50
74045;BME280;62389;51.412;5.436;2023-03-26T14:19:02;100181.75;;;8.01;97.42
74045;BME280;62389;51.412;5.436;2023-03-26T14:35:45;100212.31;;;7.55;98.26
74045;BME280;62389;51.412;5.436;2023-03-26T14:41:17;100226.91;;;7.59;97.36
74045;BME280;62389;51.412;5.436;2023-03-26T14:52:41;100234.69;;;7.39;99.05
74045;BME280;62389;51.412;5.436;2023-03-26T14:58:01;100246.03;;;7.36;99.30
74045;BME280;62389;51.412;5.436;2023-03-26T15:12:00;100277.09;;;7.19;97.17
74045;BME280;62389;51.412;5.436;2023-03-26T15:17:36;100284.66;;;7.01;96.42
74045;BME280;62389;51.412;5.436;2023-03-26T15:45:45;100345.00;;;6.88;94.95
74045;BME280;62389;51.412;5.436;2023-03-26T15:48:27;100348.31;;;6.91;95.07
74045;BME280;62389;51.412;5.436;2023-03-26T15:51:36;100361.38;;;6.90;95.06
74045;BME280;62389;51.412;5.436;2023-03-26T15:57:12;100368.72;;;6.79;95.89
74045;BME280;62389;51.412;5.436;2023-03-26T16:08:07;100385.03;;;6.82;96.55
74045;BME280;62389;51.412;5.436;2023-03-26T16:10:48;100384.94;;;6.85;97.01
74045;BME280;62389;51.412;5.436;2023-03-26T16:15:42;100394.25;;;6.91;97.08
74045;BME280;62389;51.412;5.436;2023-03-26T16:18:14;100401.97;;;6.94;97.05
74045;BME280;62389;51.412;5.436;2023-03-26T16:20:51;100399.25;;;6.97;97.30
74045;BME280;62389;51.412;5.436;2023-03-26T16:24:07;100406.16;;;6.98;96.33
74045;BME280;62389;51.412;5.436;2023-03-26T16:28:32;100406.03;;;7.01;95.82
74045;BME280;62389;51.412;5.436;2023-03-26T16:31:27;100416.34;;;7.04;96.20
74045;BME280;62389;51.412;5.436;2023-03-26T16:36:36;100428.34;;;7.08;96.32
74045;BME280;62389;51.412;5.436;2023-03-26T16:57:40;100487.16;;;6.86;92.76
74045;BME280;62389;51.412;5.436;2023-03-26T17:05:19;100512.47;;;6.54;91.85
74045;BME280;62389;51.412;5.436;2023-03-26T17:08:01;100515.28;;;6.48;91.82
74045;BME280;62389;51.412;5.436;2023-03-26T17:14:31;100532.19;;;6.33;90.84
74045;BME280;62389;51.412;5.436;2023-03-26T17:19:38;100550.59;;;6.26;93.09
74045;BME280;62389;51.412;5.436;2023-03-26T17:24:59;100563.84;;;6.18;89.38
74045;BME280;62389;51.412;5.436;2023-03-26T17:35:45;100589.66;;;6.22;89.18
74045;BME280;62389;51.412;5.436;2023-03-26T17:40:54;100598.88;;;6.33;87.60
74045;BME280;62389;51.412;5.436;2023-03-26T17:43:38;100606.50;;;6.37;88.50
74045;BME280;62389;51.412;5.436;2023-03-26T17:49:11;100622.78;;;6.44;88.99
74045;BME280;62389;51.412;5.436;2023-03-26T17:54:16;100633.22;;;6.42;87.19
74045;BME280;62389;51.412;5.436;2023-03-26T17:56:43;100635.91;;;6.39;86.25
74045;BME280;62389;51.412;5.436;2023-03-26T17:59:17;100641.19;;;6.36;86.55
74045;BME280;62389;51.412;5.436;2023-03-26T18:01:49;100664.63;;;6.35;84.86
74045;BME280;62389;51.412;5.436;2023-03-26T18:04:23;100657.72;;;6.34;84.53
74045;BME280;62389;51.412;5.436;2023-03-26T18:18:13;100688.19;;;6.27;84.18
74045;BME280;62389;51.412;5.436;2023-03-26T18:20:43;100685.72;;;6.24;83.45
74045;BME280;62389;51.412;5.436;2023-03-26T18:23:20;100698.75;;;6.22;83.09
74045;BME280;62389;51.412;5.436;2023-03-26T18:26:38;100706.63;;;6.19;82.40
74045;BME280;62389;51.412;5.436;2023-03-26T18:28:43;100712.72;;;6.18;82.25
74045;BME280;62389;51.412;5.436;2023-03-26T18:31:23;100722.19;;;6.19;82.63
74045;BME280;62389;51.412;5.436;2023-03-26T18:33:54;100723.97;;;6.17;81.92
74045;BME280;62389;51.412;5.436;2023-03-26T18:36:23;100732.66;;;6.16;80.70
74045;BME280;62389;51.412;5.436;2023-03-26T18:38:50;100742.19;;;6.16;80.00
74045;BME280;62389;51.412;5.436;2023-03-26T18:41:30;100740.56;;;6.13;80.69
74045;BME280;62389;51.412;5.436;2023-03-26T18:44:03;100756.16;;;6.12;80.40
74045;BME280;62389;51.412;5.436;2023-03-26T18:46:31;100753.66;;;6.07;79.78
74045;BME280;62389;51.412;5.436;2023-03-26T18:48:57;100761.56;;;6.04;80.27
74045;BME280;62389;51.412;5.436;2023-03-26T18:51:25;100766.81;;;6.03;80.50
74045;BME280;62389;51.412;5.436;2023-03-26T18:53:57;100774.72;;;5.98;79.80
74045;BME280;62389;51.412;5.436;2023-03-26T18:56:29;100779.13;;;5.94;78.97
74045;BME280;62389;51.412;5.436;2023-03-26T18:59:00;100775.66;;;5.94;79.16
74045;BME280;62389;51.412;5.436;2023-03-26T19:01:28;100789.56;;;5.91;78.26
74045;BME280;62389;51.412;5.436;2023-03-26T19:04:05;100787.94;;;5.87;77.74
74045;BME280;62389;51.412;5.436;2023-03-26T19:06:32;100799.28;;;5.82;77.03
74045;BME280;62389;51.412;5.436;2023-03-26T19:09:04;100810.63;;;5.79;75.63
74045;BME280;62389;51.412;5.436;2023-03-26T19:11:37;100808.13;;;5.75;76.12
74045;BME280;62389;51.412;5.436;2023-03-26T19:14:16;100812.47;;;5.74;76.82
74045;BME280;62389;51.412;5.436;2023-03-26T19:17:03;100828.94;;;5.71;75.94
74045;BME280;62389;51.412;5.436;2023-03-26T19:19:35;100828.09;;;5.71;76.27
74045;BME280;62389;51.412;5.436;2023-03-26T19:22:03;100837.63;;;5.70;74.71
74045;BME280;62389;51.412;5.436;2023-03-26T19:24:30;100838.59;;;5.66;74.78
74045;BME280;62389;51.412;5.436;2023-03-26T19:26:55;100853.34;;;5.64;75.25
74045;BME280;62389;51.412;5.436;2023-03-26T19:29:30;100863.03;;;5.58;73.81
74045;BME280;62389;51.412;5.436;2023-03-26T19:32:04;100858.81;;;5.52;74.63